Calcot, United Kingdom
Current Conditions -  °F | °C
As of 3:50 PM on Saturday 25 Oct 2014 (Local Time) from EGUB Reporting Station
Few Clouds Few Clouds  
Wind Chill: 59°   Ceiling: Unl
Heat Index: 59°   Visibility: 6mi
Dew Point: 46°   Wind: 13mph
Humidity: 63%   Direction: 190°S
Pressure: 30.06"   Gusts: NA
Location:  51.44°N, 1.05°W
Report Text: EGUB 251450Z 19011KT 9999 FEW030 15/08 Q1018 BLU NOSIG
Loading
Personal Weather Stations






























Interactive Weather Map
Tropical Storm Tracking
New forecast layout! Learn more

10-Day Weather Forecast

Advertisements
Track Severe Weather on mobile